Terminal Aerodrome Forecast
Issued by NWS

Home | Current Version | Previous Version | Text Only | Print | Product List | Glossary On
Versions: 1 2 3 4 5 6 7 8 9 10 11 12 13 14 15 16
000
FTUS44 KLUB 170705 AAA
TAFCDS
TAF AMD
KCDS 170705Z 1707/1806 16011KT P6SM BKN012
     FM171400 29005KT P6SM FEW008
     FM171700 35011KT P6SM FEW150
     FM172000 VRB05KT P6SM SCT250=

USA.gov is the U.S. government's official web portal to all federal, state and local government web resources and services.